sensor_id;sensor_type;location;lat;lon;timestamp;temperature;humidity
26743;DHT22;14341;51.256;22.478;2022-09-04T00:00:28;8.20;99.90
26743;DHT22;14341;51.256;22.478;2022-09-04T00:03:40;8.20;99.90
26743;DHT22;14341;51.256;22.478;2022-09-04T00:06:52;8.10;99.90
26743;DHT22;14341;51.256;22.478;2022-09-04T00:10:06;8.10;99.90
26743;DHT22;14341;51.256;22.478;2022-09-04T00:13:17;8.10;99.90
26743;DHT22;14341;51.256;22.478;2022-09-04T00:16:28;8.20;99.90
26743;DHT22;14341;51.256;22.478;2022-09-04T00:19:39;8.10;99.90
26743;DHT22;14341;51.256;22.478;2022-09-04T00:22:49;8.20;99.90
26743;DHT22;14341;51.256;22.478;2022-09-04T00:26:02;8.10;99.90
26743;DHT22;14341;51.256;22.478;2022-09-04T00:29:14;8.10;99.90
26743;DHT22;14341;51.256;22.478;2022-09-04T00:32:27;8.10;99.90
26743;DHT22;14341;51.256;22.478;2022-09-04T00:35:34;8.00;99.90
26743;DHT22;14341;51.256;22.478;2022-09-04T00:38:43;8.00;99.90
26743;DHT22;14341;51.256;22.478;2022-09-04T00:41:58;7.90;99.90
26743;DHT22;14341;51.256;22.478;2022-09-04T00:45:19;7.70;99.90
26743;DHT22;14341;51.256;22.478;2022-09-04T00:48:50;7.70;99.90
26743;DHT22;14341;51.256;22.478;2022-09-04T00:52:09;7.60;99.90
26743;DHT22;14341;51.256;22.478;2022-09-04T00:55:33;7.60;99.90
26743;DHT22;14341;51.256;22.478;2022-09-04T00:58:53;7.60;99.90
26743;DHT22;14341;51.256;22.478;2022-09-04T01:02:05;7.60;99.90
26743;DHT22;14341;51.256;22.478;2022-09-04T01:05:24;7.60;99.90
26743;DHT22;14341;51.256;22.478;2022-09-04T01:08:42;7.60;99.90
26743;DHT22;14341;51.256;22.478;2022-09-04T01:11:55;7.60;99.90
26743;DHT22;14341;51.256;22.478;2022-09-04T01:15:08;7.50;99.90
26743;DHT22;14341;51.256;22.478;2022-09-04T01:18:21;7.50;99.90
26743;DHT22;14341;51.256;22.478;2022-09-04T01:21:55;7.50;99.90
26743;DHT22;14341;51.256;22.478;2022-09-04T01:25:20;7.40;99.90
26743;DHT22;14341;51.256;22.478;2022-09-04T01:28:35;7.40;99.90
26743;DHT22;14341;51.256;22.478;2022-09-04T01:31:49;7.40;99.90
26743;DHT22;14341;51.256;22.478;2022-09-04T01:35:02;7.30;99.90
26743;DHT22;14341;51.256;22.478;2022-09-04T01:38:13;7.30;99.90
26743;DHT22;14341;51.256;22.478;2022-09-04T01:41:22;7.40;99.90
26743;DHT22;14341;51.256;22.478;2022-09-04T01:44:29;7.40;99.90
26743;DHT22;14341;51.256;22.478;2022-09-04T01:47:39;7.20;99.90
26743;DHT22;14341;51.256;22.478;2022-09-04T01:50:49;7.20;99.90
26743;DHT22;14341;51.256;22.478;2022-09-04T01:54:04;7.10;99.90
26743;DHT22;14341;51.256;22.478;2022-09-04T01:57:21;7.10;99.90
26743;DHT22;14341;51.256;22.478;2022-09-04T02:00:32;7.00;99.90
26743;DHT22;14341;51.256;22.478;2022-09-04T02:03:42;7.00;99.90
26743;DHT22;14341;51.256;22.478;2022-09-04T02:06:54;7.00;99.90
26743;DHT22;14341;51.256;22.478;2022-09-04T02:10:06;6.90;99.90
26743;DHT22;14341;51.256;22.478;2022-09-04T02:13:15;6.90;99.90
26743;DHT22;14341;51.256;22.478;2022-09-04T02:16:29;6.90;99.90
26743;DHT22;14341;51.256;22.478;2022-09-04T02:19:42;6.90;99.90
26743;DHT22;14341;51.256;22.478;2022-09-04T02:22:57;6.90;99.90
26743;DHT22;14341;51.256;22.478;2022-09-04T02:26:10;6.80;99.90
26743;DHT22;14341;51.256;22.478;2022-09-04T02:29:27;6.90;99.90
26743;DHT22;14341;51.256;22.478;2022-09-04T02:32:39;6.90;99.90
26743;DHT22;14341;51.256;22.478;2022-09-04T02:35:48;6.80;99.90
26743;DHT22;14341;51.256;22.478;2022-09-04T02:38:57;6.80;99.90
26743;DHT22;14341;51.256;22.478;2022-09-04T02:42:13;6.80;99.90
26743;DHT22;14341;51.256;22.478;2022-09-04T02:45:27;6.70;99.90
26743;DHT22;14341;51.256;22.478;2022-09-04T02:48:46;6.70;99.90
26743;DHT22;14341;51.256;22.478;2022-09-04T02:52:00;6.70;99.90
26743;DHT22;14341;51.256;22.478;2022-09-04T02:55:15;6.70;99.90
26743;DHT22;14341;51.256;22.478;2022-09-04T02:58:30;6.60;99.90
26743;DHT22;14341;51.256;22.478;2022-09-04T03:01:38;6.70;99.90
26743;DHT22;14341;51.256;22.478;2022-09-04T03:04:57;6.60;99.90
26743;DHT22;14341;51.256;22.478;2022-09-04T03:08:06;6.60;99.90
26743;DHT22;14341;51.256;22.478;2022-09-04T03:11:15;6.50;99.90
26743;DHT22;14341;51.256;22.478;2022-09-04T03:14:25;6.50;99.90
26743;DHT22;14341;51.256;22.478;2022-09-04T03:17:43;6.50;99.90
26743;DHT22;14341;51.256;22.478;2022-09-04T03:20:55;6.60;99.90
26743;DHT22;14341;51.256;22.478;2022-09-04T03:24:03;6.50;99.90
26743;DHT22;14341;51.256;22.478;2022-09-04T03:27:10;6.60;99.90
26743;DHT22;14341;51.256;22.478;2022-09-04T03:30:16;6.60;99.90
26743;DHT22;14341;51.256;22.478;2022-09-04T03:33:24;6.70;99.90
26743;DHT22;14341;51.256;22.478;2022-09-04T03:36:34;6.70;99.90
26743;DHT22;14341;51.256;22.478;2022-09-04T03:39:49;6.80;99.90
26743;DHT22;14341;51.256;22.478;2022-09-04T03:43:11;6.90;99.90
26743;DHT22;14341;51.256;22.478;2022-09-04T03:46:28;6.90;99.90
26743;DHT22;14341;51.256;22.478;2022-09-04T03:49:42;6.90;99.90
26743;DHT22;14341;51.256;22.478;2022-09-04T03:52:56;6.90;99.90
26743;DHT22;14341;51.256;22.478;2022-09-04T03:59:50;6.80;99.90
26743;DHT22;14341;51.256;22.478;2022-09-04T04:03:16;6.80;99.90
26743;DHT22;14341;51.256;22.478;2022-09-04T04:06:28;6.90;99.90
26743;DHT22;14341;51.256;22.478;2022-09-04T04:09:46;7.00;99.90
26743;DHT22;14341;51.256;22.478;2022-09-04T04:13:14;7.10;99.90
26743;DHT22;14341;51.256;22.478;2022-09-04T04:16:30;7.20;99.90
26743;DHT22;14341;51.256;22.478;2022-09-04T04:19:52;7.40;99.90
26743;DHT22;14341;51.256;22.478;2022-09-04T04:23:15;7.60;99.90
26743;DHT22;14341;51.256;22.478;2022-09-04T04:26:36;7.60;99.90
26743;DHT22;14341;51.256;22.478;2022-09-04T04:29:54;7.70;99.90
26743;DHT22;14341;51.256;22.478;2022-09-04T04:33:18;7.90;99.90
26743;DHT22;14341;51.256;22.478;2022-09-04T04:36:32;8.00;99.90
26743;DHT22;14341;51.256;22.478;2022-09-04T04:39:45;8.20;99.90
26743;DHT22;14341;51.256;22.478;2022-09-04T04:42:58;8.30;99.90
26743;DHT22;14341;51.256;22.478;2022-09-04T04:46:08;8.50;99.90
26743;DHT22;14341;51.256;22.478;2022-09-04T04:49:35;8.70;99.90
26743;DHT22;14341;51.256;22.478;2022-09-04T04:52:46;8.80;99.90
26743;DHT22;14341;51.256;22.478;2022-09-04T04:55:56;8.90;99.90
26743;DHT22;14341;51.256;22.478;2022-09-04T04:59:07;9.00;99.90
26743;DHT22;14341;51.256;22.478;2022-09-04T05:02:25;9.10;99.90
26743;DHT22;14341;51.256;22.478;2022-09-04T05:05:49;9.20;99.90
26743;DHT22;14341;51.256;22.478;2022-09-04T05:09:01;9.30;99.90
26743;DHT22;14341;51.256;22.478;2022-09-04T05:12:12;9.40;99.90
26743;DHT22;14341;51.256;22.478;2022-09-04T05:15:26;9.60;99.90
26743;DHT22;14341;51.256;22.478;2022-09-04T05:18:34;9.60;99.90
26743;DHT22;14341;51.256;22.478;2022-09-04T05:21:43;9.80;99.90
26743;DHT22;14341;51.256;22.478;2022-09-04T05:24:58;9.80;99.90
26743;DHT22;14341;51.256;22.478;2022-09-04T05:28:09;9.90;99.90
26743;DHT22;14341;51.256;22.478;2022-09-04T05:31:23;9.90;99.90
26743;DHT22;14341;51.256;22.478;2022-09-04T05:34:51;9.90;99.90
26743;DHT22;14341;51.256;22.478;2022-09-04T05:38:04;10.10;99.90
26743;DHT22;14341;51.256;22.478;2022-09-04T05:41:17;10.20;99.90
26743;DHT22;14341;51.256;22.478;2022-09-04T05:44:38;10.30;99.90
26743;DHT22;14341;51.256;22.478;2022-09-04T05:47:57;10.40;99.90
26743;DHT22;14341;51.256;22.478;2022-09-04T05:51:20;10.50;99.90
26743;DHT22;14341;51.256;22.478;2022-09-04T05:54:40;10.60;99.90
26743;DHT22;14341;51.256;22.478;2022-09-04T05:57:57;10.80;99.90
26743;DHT22;14341;51.256;22.478;2022-09-04T06:01:13;10.90;99.90
26743;DHT22;14341;51.256;22.478;2022-09-04T06:04:48;11.10;99.90
26743;DHT22;14341;51.256;22.478;2022-09-04T06:08:00;11.30;99.90
26743;DHT22;14341;51.256;22.478;2022-09-04T06:11:33;11.50;99.90
26743;DHT22;14341;51.256;22.478;2022-09-04T06:14:44;11.60;99.90
26743;DHT22;14341;51.256;22.478;2022-09-04T06:18:21;11.70;99.90
26743;DHT22;14341;51.256;22.478;2022-09-04T06:25:39;12.10;99.90
26743;DHT22;14341;51.256;22.478;2022-09-04T06:29:05;12.30;99.90
26743;DHT22;14341;51.256;22.478;2022-09-04T06:32:39;12.40;99.90
26743;DHT22;14341;51.256;22.478;2022-09-04T06:36:20;12.60;99.90
26743;DHT22;14341;51.256;22.478;2022-09-04T06:39:59;12.90;99.90
26743;DHT22;14341;51.256;22.478;2022-09-04T06:43:18;13.00;99.90
26743;DHT22;14341;51.256;22.478;2022-09-04T06:46:35;13.20;99.90
26743;DHT22;14341;51.256;22.478;2022-09-04T06:49:56;13.40;99.90
26743;DHT22;14341;51.256;22.478;2022-09-04T06:53:11;13.50;99.90
26743;DHT22;14341;51.256;22.478;2022-09-04T06:56:36;13.70;99.90
26743;DHT22;14341;51.256;22.478;2022-09-04T07:03:38;14.00;99.90
26743;DHT22;14341;51.256;22.478;2022-09-04T07:06:55;14.10;99.90
26743;DHT22;14341;51.256;22.478;2022-09-04T07:10:05;14.30;99.90
26743;DHT22;14341;51.256;22.478;2022-09-04T07:13:37;14.40;99.90
26743;DHT22;14341;51.256;22.478;2022-09-04T07:16:49;14.60;99.90
26743;DHT22;14341;51.256;22.478;2022-09-04T07:20:07;14.80;99.90
26743;DHT22;14341;51.256;22.478;2022-09-04T07:23:27;14.90;99.90
26743;DHT22;14341;51.256;22.478;2022-09-04T07:26:38;15.00;99.90
26743;DHT22;14341;51.256;22.478;2022-09-04T07:29:49;15.20;99.90
26743;DHT22;14341;51.256;22.478;2022-09-04T07:32:58;15.20;99.90
26743;DHT22;14341;51.256;22.478;2022-09-04T07:36:07;15.30;99.90
26743;DHT22;14341;51.256;22.478;2022-09-04T07:39:19;15.50;99.90
26743;DHT22;14341;51.256;22.478;2022-09-04T07:42:29;15.50;99.90
26743;DHT22;14341;51.256;22.478;2022-09-04T07:45:37;15.70;99.90
26743;DHT22;14341;51.256;22.478;2022-09-04T07:48:45;15.80;99.90
26743;DHT22;14341;51.256;22.478;2022-09-04T07:51:54;15.80;99.90
26743;DHT22;14341;51.256;22.478;2022-09-04T07:55:10;15.80;99.90
26743;DHT22;14341;51.256;22.478;2022-09-04T07:58:41;16.00;99.90
26743;DHT22;14341;51.256;22.478;2022-09-04T08:02:14;16.10;99.90
26743;DHT22;14341;51.256;22.478;2022-09-04T08:05:26;16.30;99.90
26743;DHT22;14341;51.256;22.478;2022-09-04T08:08:55;16.30;96.70
26743;DHT22;14341;51.256;22.478;2022-09-04T08:12:55;16.20;99.90
26743;DHT22;14341;51.256;22.478;2022-09-04T08:16:06;16.20;99.90
26743;DHT22;14341;51.256;22.478;2022-09-04T08:19:24;16.10;99.90
26743;DHT22;14341;51.256;22.478;2022-09-04T08:22:41;16.40;99.90
26743;DHT22;14341;51.256;22.478;2022-09-04T08:25:58;16.50;99.90
26743;DHT22;14341;51.256;22.478;2022-09-04T08:29:15;16.60;99.90
26743;DHT22;14341;51.256;22.478;2022-09-04T08:32:45;16.70;99.40
26743;DHT22;14341;51.256;22.478;2022-09-04T08:35:55;16.90;97.10
26743;DHT22;14341;51.256;22.478;2022-09-04T08:39:10;17.20;94.70
26743;DHT22;14341;51.256;22.478;2022-09-04T08:42:31;17.40;90.10
26743;DHT22;14341;51.256;22.478;2022-09-04T08:56:39;17.90;51.50
26743;DHT22;14341;51.256;22.478;2022-09-04T09:00:05;18.10;42.00
26743;DHT22;14341;51.256;22.478;2022-09-04T09:03:32;18.50;36.10
26743;DHT22;14341;51.256;22.478;2022-09-04T09:07:10;18.70;46.10
26743;DHT22;14341;51.256;22.478;2022-09-04T09:10:35;19.10;16.70
26743;DHT22;14341;51.256;22.478;2022-09-04T09:14:21;19.40;12.60
26743;DHT22;14341;51.256;22.478;2022-09-04T09:17:36;19.40;1.00
26743;DHT22;14341;51.256;22.478;2022-09-04T09:20:45;19.10;1.00
26743;DHT22;14341;51.256;22.478;2022-09-04T09:24:14;19.40;1.00
26743;DHT22;14341;51.256;22.478;2022-09-04T09:38:51;20.00;1.00
26743;DHT22;14341;51.256;22.478;2022-09-04T09:46:11;20.90;1.00
26743;DHT22;14341;51.256;22.478;2022-09-04T10:00:52;20.60;1.00
26743;DHT22;14341;51.256;22.478;2022-09-04T10:04:28;20.00;1.00
26743;DHT22;14341;51.256;22.478;2022-09-04T10:08:01;20.00;1.00
26743;DHT22;14341;51.256;22.478;2022-09-04T10:11:37;20.20;1.00
26743;DHT22;14341;51.256;22.478;2022-09-04T10:19:08;19.60;1.00
26743;DHT22;14341;51.256;22.478;2022-09-04T10:22:46;19.60;1.00
26743;DHT22;14341;51.256;22.478;2022-09-04T10:26:08;19.50;1.00
26743;DHT22;14341;51.256;22.478;2022-09-04T10:29:36;20.10;1.00
26743;DHT22;14341;51.256;22.478;2022-09-04T10:33:04;20.10;1.00
26743;DHT22;14341;51.256;22.478;2022-09-04T10:36:21;20.10;1.00
26743;DHT22;14341;51.256;22.478;2022-09-04T10:39:33;20.40;1.00
26743;DHT22;14341;51.256;22.478;2022-09-04T10:46:24;20.20;1.00
26743;DHT22;14341;51.256;22.478;2022-09-04T10:49:50;19.90;1.00
26743;DHT22;14341;51.256;22.478;2022-09-04T10:53:17;20.10;1.00
26743;DHT22;14341;51.256;22.478;2022-09-04T10:56:25;20.10;1.00
26743;DHT22;14341;51.256;22.478;2022-09-04T10:59:49;19.80;1.00
26743;DHT22;14341;51.256;22.478;2022-09-04T11:03:21;20.00;1.00
26743;DHT22;14341;51.256;22.478;2022-09-04T11:06:47;20.30;1.00
26743;DHT22;14341;51.256;22.478;2022-09-04T11:10:24;20.40;1.00
26743;DHT22;14341;51.256;22.478;2022-09-04T11:21:25;20.10;1.00
26743;DHT22;14341;51.256;22.478;2022-09-04T11:25:03;19.90;1.00
26743;DHT22;14341;51.256;22.478;2022-09-04T11:29:05;19.70;1.00
26743;DHT22;14341;51.256;22.478;2022-09-04T11:32:35;20.10;1.00
26743;DHT22;14341;51.256;22.478;2022-09-04T11:36:32;20.20;1.00
26743;DHT22;14341;51.256;22.478;2022-09-04T11:40:08;21.10;1.00
26743;DHT22;14341;51.256;22.478;2022-09-04T11:44:34;20.40;1.00
26743;DHT22;14341;51.256;22.478;2022-09-04T11:52:36;21.40;1.00
26743;DHT22;14341;51.256;22.478;2022-09-04T11:56:20;22.50;1.00
26743;DHT22;14341;51.256;22.478;2022-09-04T12:00:04;23.40;1.00
26743;DHT22;14341;51.256;22.478;2022-09-04T12:07:32;25.20;1.00
26743;DHT22;14341;51.256;22.478;2022-09-04T12:11:10;25.20;1.00
26743;DHT22;14341;51.256;22.478;2022-09-04T12:14:38;24.80;1.00
26743;DHT22;14341;51.256;22.478;2022-09-04T12:18:30;24.50;1.00
26743;DHT22;14341;51.256;22.478;2022-09-04T12:26:08;25.00;1.00
26743;DHT22;14341;51.256;22.478;2022-09-04T12:33:44;25.80;1.00
26743;DHT22;14341;51.256;22.478;2022-09-04T12:37:25;26.40;1.00
26743;DHT22;14341;51.256;22.478;2022-09-04T12:40:40;26.00;1.00
26743;DHT22;14341;51.256;22.478;2022-09-04T12:43:55;26.40;1.00
26743;DHT22;14341;51.256;22.478;2022-09-04T12:47:21;24.10;1.00
26743;DHT22;14341;51.256;22.478;2022-09-04T12:50:55;23.40;1.00
26743;DHT22;14341;51.256;22.478;2022-09-04T12:54:09;22.80;1.00
26743;DHT22;14341;51.256;22.478;2022-09-04T12:57:45;22.70;1.00
26743;DHT22;14341;51.256;22.478;2022-09-04T13:01:11;22.00;1.00
26743;DHT22;14341;51.256;22.478;2022-09-04T13:04:35;21.90;1.00
26743;DHT22;14341;51.256;22.478;2022-09-04T13:08:13;22.80;1.00
26743;DHT22;14341;51.256;22.478;2022-09-04T13:11:31;23.70;1.00
26743;DHT22;14341;51.256;22.478;2022-09-04T13:14:53;24.40;1.00
26743;DHT22;14341;51.256;22.478;2022-09-04T13:18:12;24.10;1.00
26743;DHT22;14341;51.256;22.478;2022-09-04T13:21:30;23.80;1.00
26743;DHT22;14341;51.256;22.478;2022-09-04T13:24:48;23.40;1.00
26743;DHT22;14341;51.256;22.478;2022-09-04T13:28:01;22.70;1.00
26743;DHT22;14341;51.256;22.478;2022-09-04T13:31:49;22.60;1.00
26743;DHT22;14341;51.256;22.478;2022-09-04T13:35:18;21.90;1.00
26743;DHT22;14341;51.256;22.478;2022-09-04T13:38:37;21.50;1.00
26743;DHT22;14341;51.256;22.478;2022-09-04T13:42:09;21.20;1.00
26743;DHT22;14341;51.256;22.478;2022-09-04T13:45:17;20.80;1.00
26743;DHT22;14341;51.256;22.478;2022-09-04T13:48:34;20.60;1.00
26743;DHT22;14341;51.256;22.478;2022-09-04T13:51:42;20.70;1.00
26743;DHT22;14341;51.256;22.478;2022-09-04T13:54:53;20.60;1.00
26743;DHT22;14341;51.256;22.478;2022-09-04T13:58:06;20.50;1.00
26743;DHT22;14341;51.256;22.478;2022-09-04T14:01:15;20.20;1.00
26743;DHT22;14341;51.256;22.478;2022-09-04T14:04:27;20.10;1.00
26743;DHT22;14341;51.256;22.478;2022-09-04T14:07:37;20.10;1.00
26743;DHT22;14341;51.256;22.478;2022-09-04T14:11:03;19.90;1.00
26743;DHT22;14341;51.256;22.478;2022-09-04T14:14:41;19.70;1.00
26743;DHT22;14341;51.256;22.478;2022-09-04T14:17:58;19.80;1.00
26743;DHT22;14341;51.256;22.478;2022-09-04T14:21:09;19.90;1.00
26743;DHT22;14341;51.256;22.478;2022-09-04T14:24:21;20.10;1.00
26743;DHT22;14341;51.256;22.478;2022-09-04T14:27:35;20.00;1.00
26743;DHT22;14341;51.256;22.478;2022-09-04T14:30:49;19.80;1.00
26743;DHT22;14341;51.256;22.478;2022-09-04T14:34:06;19.80;1.00
26743;DHT22;14341;51.256;22.478;2022-09-04T14:37:34;19.80;1.00
26743;DHT22;14341;51.256;22.478;2022-09-04T14:40:52;20.00;1.00
26743;DHT22;14341;51.256;22.478;2022-09-04T14:44:13;20.20;1.00
26743;DHT22;14341;51.256;22.478;2022-09-04T14:47:28;20.20;1.00
26743;DHT22;14341;51.256;22.478;2022-09-04T14:50:44;20.00;1.00
26743;DHT22;14341;51.256;22.478;2022-09-04T14:54:22;20.10;1.00
26743;DHT22;14341;51.256;22.478;2022-09-04T14:57:31;20.20;1.00
26743;DHT22;14341;51.256;22.478;2022-09-04T15:00:54;20.10;1.00
26743;DHT22;14341;51.256;22.478;2022-09-04T15:04:10;20.40;1.00
26743;DHT22;14341;51.256;22.478;2022-09-04T15:07:47;20.40;1.00
26743;DHT22;14341;51.256;22.478;2022-09-04T15:11:29;19.80;1.00
26743;DHT22;14341;51.256;22.478;2022-09-04T15:14:48;19.90;1.00
26743;DHT22;14341;51.256;22.478;2022-09-04T15:18:06;19.50;1.00
26743;DHT22;14341;51.256;22.478;2022-09-04T15:21:44;19.50;1.00
26743;DHT22;14341;51.256;22.478;2022-09-04T15:25:08;19.30;1.00
26743;DHT22;14341;51.256;22.478;2022-09-04T15:28:21;19.30;1.00
26743;DHT22;14341;51.256;22.478;2022-09-04T15:31:40;19.40;1.00
26743;DHT22;14341;51.256;22.478;2022-09-04T15:34:50;19.70;1.00
26743;DHT22;14341;51.256;22.478;2022-09-04T15:38:17;19.90;1.00
26743;DHT22;14341;51.256;22.478;2022-09-04T15:41:37;20.10;1.00
26743;DHT22;14341;51.256;22.478;2022-09-04T15:44:45;20.00;1.00
26743;DHT22;14341;51.256;22.478;2022-09-04T15:48:23;20.10;1.00
26743;DHT22;14341;51.256;22.478;2022-09-04T15:51:44;20.00;1.00
26743;DHT22;14341;51.256;22.478;2022-09-04T15:55:07;20.00;1.00
26743;DHT22;14341;51.256;22.478;2022-09-04T15:58:22;19.60;1.00
26743;DHT22;14341;51.256;22.478;2022-09-04T16:02:02;19.60;1.00
26743;DHT22;14341;51.256;22.478;2022-09-04T16:05:19;19.50;17.20
26743;DHT22;14341;51.256;22.478;2022-09-04T16:08:35;19.60;17.30
26743;DHT22;14341;51.256;22.478;2022-09-04T16:11:57;19.50;30.50
26743;DHT22;14341;51.256;22.478;2022-09-04T16:15:07;19.10;26.00
26743;DHT22;14341;51.256;22.478;2022-09-04T16:18:36;19.20;39.80
26743;DHT22;14341;51.256;22.478;2022-09-04T16:21:48;19.00;57.30
26743;DHT22;14341;51.256;22.478;2022-09-04T16:25:02;18.90;67.30
26743;DHT22;14341;51.256;22.478;2022-09-04T16:28:13;18.60;78.40
26743;DHT22;14341;51.256;22.478;2022-09-04T16:31:24;18.50;90.60
26743;DHT22;14341;51.256;22.478;2022-09-04T16:34:44;18.30;93.00
26743;DHT22;14341;51.256;22.478;2022-09-04T16:37:51;17.90;95.50
26743;DHT22;14341;51.256;22.478;2022-09-04T16:41:01;17.90;98.10
26743;DHT22;14341;51.256;22.478;2022-09-04T16:44:39;17.60;99.90
26743;DHT22;14341;51.256;22.478;2022-09-04T16:48:04;17.10;99.90
26743;DHT22;14341;51.256;22.478;2022-09-04T16:51:55;17.00;99.90
26743;DHT22;14341;51.256;22.478;2022-09-04T16:55:07;16.70;99.90
26743;DHT22;14341;51.256;22.478;2022-09-04T16:58:20;16.60;99.90
26743;DHT22;14341;51.256;22.478;2022-09-04T17:01:56;16.50;99.90
26743;DHT22;14341;51.256;22.478;2022-09-04T17:05:21;16.30;99.90
26743;DHT22;14341;51.256;22.478;2022-09-04T17:08:45;16.10;99.90
26743;DHT22;14341;51.256;22.478;2022-09-04T17:12:30;16.00;99.90
26743;DHT22;14341;51.256;22.478;2022-09-04T17:15:54;15.70;99.90
26743;DHT22;14341;51.256;22.478;2022-09-04T17:19:13;15.80;99.90
26743;DHT22;14341;51.256;22.478;2022-09-04T17:22:25;15.60;99.90
26743;DHT22;14341;51.256;22.478;2022-09-04T17:25:59;15.50;99.90
26743;DHT22;14341;51.256;22.478;2022-09-04T17:29:35;15.40;99.90
26743;DHT22;14341;51.256;22.478;2022-09-04T17:32:56;15.20;99.90
26743;DHT22;14341;51.256;22.478;2022-09-04T17:40:56;15.00;99.90
26743;DHT22;14341;51.256;22.478;2022-09-04T17:44:37;14.80;99.90
26743;DHT22;14341;51.256;22.478;2022-09-04T17:48:14;14.90;99.90
26743;DHT22;14341;51.256;22.478;2022-09-04T17:51:36;14.70;99.90
26743;DHT22;14341;51.256;22.478;2022-09-04T17:54:47;14.70;99.90
26743;DHT22;14341;51.256;22.478;2022-09-04T17:57:56;14.60;99.90
26743;DHT22;14341;51.256;22.478;2022-09-04T18:01:19;14.60;99.90
26743;DHT22;14341;51.256;22.478;2022-09-04T18:04:39;14.60;99.90
26743;DHT22;14341;51.256;22.478;2022-09-04T18:08:14;14.40;99.90
26743;DHT22;14341;51.256;22.478;2022-09-04T18:11:39;14.40;99.90
26743;DHT22;14341;51.256;22.478;2022-09-04T18:15:14;14.30;99.90
26743;DHT22;14341;51.256;22.478;2022-09-04T18:18:41;14.20;99.90
26743;DHT22;14341;51.256;22.478;2022-09-04T18:21:59;14.20;99.90
26743;DHT22;14341;51.256;22.478;2022-09-04T18:25:42;14.10;99.90
26743;DHT22;14341;51.256;22.478;2022-09-04T18:28:56;14.10;99.90
26743;DHT22;14341;51.256;22.478;2022-09-04T18:32:16;13.90;99.90
26743;DHT22;14341;51.256;22.478;2022-09-04T18:35:54;13.90;99.90
26743;DHT22;14341;51.256;22.478;2022-09-04T18:39:36;13.90;99.90
26743;DHT22;14341;51.256;22.478;2022-09-04T18:43:08;13.80;99.90
26743;DHT22;14341;51.256;22.478;2022-09-04T18:46:47;12.00;99.90
26743;DHT22;14341;51.256;22.478;2022-09-04T18:50:20;13.80;99.90
26743;DHT22;14341;51.256;22.478;2022-09-04T18:53:55;13.60;99.90
26743;DHT22;14341;51.256;22.478;2022-09-04T18:57:52;13.60;99.90
26743;DHT22;14341;51.256;22.478;2022-09-04T19:01:12;13.40;99.90
26743;DHT22;14341;51.256;22.478;2022-09-04T19:04:55;13.50;99.90
26743;DHT22;14341;51.256;22.478;2022-09-04T19:08:16;13.50;99.90
26743;DHT22;14341;51.256;22.478;2022-09-04T19:11:52;13.50;99.90
26743;DHT22;14341;51.256;22.478;2022-09-04T19:14:58;13.50;99.90
26743;DHT22;14341;51.256;22.478;2022-09-04T19:18:29;13.50;99.90
26743;DHT22;14341;51.256;22.478;2022-09-04T19:21:43;13.50;99.90
26743;DHT22;14341;51.256;22.478;2022-09-04T19:25:10;13.40;99.90
26743;DHT22;14341;51.256;22.478;2022-09-04T19:28:22;13.40;99.90
26743;DHT22;14341;51.256;22.478;2022-09-04T19:31:39;13.30;99.90
26743;DHT22;14341;51.256;22.478;2022-09-04T19:35:18;13.20;99.90
26743;DHT22;14341;51.256;22.478;2022-09-04T19:38:40;13.30;99.90
26743;DHT22;14341;51.256;22.478;2022-09-04T19:42:22;13.20;99.90
26743;DHT22;14341;51.256;22.478;2022-09-04T19:45:56;13.20;99.90
26743;DHT22;14341;51.256;22.478;2022-09-04T19:49:32;13.10;99.90
26743;DHT22;14341;51.256;22.478;2022-09-04T19:53:09;13.10;99.90
26743;DHT22;14341;51.256;22.478;2022-09-04T19:56:43;13.10;99.90
26743;DHT22;14341;51.256;22.478;2022-09-04T20:00:18;13.20;99.90
26743;DHT22;14341;51.256;22.478;2022-09-04T20:03:52;13.10;99.90
26743;DHT22;14341;51.256;22.478;2022-09-04T20:07:00;13.20;99.90
26743;DHT22;14341;51.256;22.478;2022-09-04T20:10:16;13.20;99.90
26743;DHT22;14341;51.256;22.478;2022-09-04T20:13:24;13.20;99.90
26743;DHT22;14341;51.256;22.478;2022-09-04T20:16:33;13.20;99.90
26743;DHT22;14341;51.256;22.478;2022-09-04T20:19:41;13.10;99.90
26743;DHT22;14341;51.256;22.478;2022-09-04T20:22:50;13.10;99.90
26743;DHT22;14341;51.256;22.478;2022-09-04T20:26:08;13.10;99.90
26743;DHT22;14341;51.256;22.478;2022-09-04T20:29:19;13.10;99.90
26743;DHT22;14341;51.256;22.478;2022-09-04T20:32:31;13.10;99.90
26743;DHT22;14341;51.256;22.478;2022-09-04T20:35:39;13.00;99.90
26743;DHT22;14341;51.256;22.478;2022-09-04T20:38:49;13.00;99.90
26743;DHT22;14341;51.256;22.478;2022-09-04T20:42:02;13.00;99.90
26743;DHT22;14341;51.256;22.478;2022-09-04T20:45:20;13.00;99.90
26743;DHT22;14341;51.256;22.478;2022-09-04T20:48:51;12.90;99.90
26743;DHT22;14341;51.256;22.478;2022-09-04T20:52:31;12.90;99.90
26743;DHT22;14341;51.256;22.478;2022-09-04T20:56:07;12.90;99.90
26743;DHT22;14341;51.256;22.478;2022-09-04T20:59:39;12.90;99.90
26743;DHT22;14341;51.256;22.478;2022-09-04T21:03:10;12.90;99.90
26743;DHT22;14341;51.256;22.478;2022-09-04T21:06:35;13.00;99.90
26743;DHT22;14341;51.256;22.478;2022-09-04T21:09:50;13.00;99.90
26743;DHT22;14341;51.256;22.478;2022-09-04T21:13:01;13.00;99.90
26743;DHT22;14341;51.256;22.478;2022-09-04T21:16:26;13.00;99.90
26743;DHT22;14341;51.256;22.478;2022-09-04T21:30:48;13.00;99.90
26743;DHT22;14341;51.256;22.478;2022-09-04T21:34:06;13.00;99.90
26743;DHT22;14341;51.256;22.478;2022-09-04T21:37:23;13.00;99.90
26743;DHT22;14341;51.256;22.478;2022-09-04T21:40:44;12.90;99.90
26743;DHT22;14341;51.256;22.478;2022-09-04T21:47:34;12.60;99.90
26743;DHT22;14341;51.256;22.478;2022-09-04T21:50:58;12.40;99.90
26743;DHT22;14341;51.256;22.478;2022-09-04T21:54:30;12.30;99.90
26743;DHT22;14341;51.256;22.478;2022-09-04T22:02:02;12.10;99.90
26743;DHT22;14341;51.256;22.478;2022-09-04T22:05:38;12.00;99.90
26743;DHT22;14341;51.256;22.478;2022-09-04T22:08:55;12.00;99.90
26743;DHT22;14341;51.256;22.478;2022-09-04T22:12:30;12.00;99.90
26743;DHT22;14341;51.256;22.478;2022-09-04T22:16:03;12.10;99.90
26743;DHT22;14341;51.256;22.478;2022-09-04T22:26:57;12.20;99.90
26743;DHT22;14341;51.256;22.478;2022-09-04T22:30:06;12.20;99.90
26743;DHT22;14341;51.256;22.478;2022-09-04T22:33:39;12.20;99.90
26743;DHT22;14341;51.256;22.478;2022-09-04T22:40:41;12.00;99.90
26743;DHT22;14341;51.256;22.478;2022-09-04T22:44:10;11.80;99.90
26743;DHT22;14341;51.256;22.478;2022-09-04T22:47:32;11.70;99.90
26743;DHT22;14341;51.256;22.478;2022-09-04T22:50:54;11.60;99.90
26743;DHT22;14341;51.256;22.478;2022-09-04T22:54:22;11.50;99.90
26743;DHT22;14341;51.256;22.478;2022-09-04T22:57:39;11.50;99.90